createdAt,value
2018-06-18T00:01:55.825Z,11.70
2018-06-18T00:04:24.839Z,11.00
2018-06-18T00:06:53.886Z,10.00
2018-06-18T00:09:22.916Z,9.57
2018-06-18T00:11:51.933Z,12.20
2018-06-18T00:14:20.908Z,7.60
2018-06-18T00:16:49.872Z,10.03
2018-06-18T00:19:18.853Z,10.00
2018-06-18T00:21:47.887Z,10.50
2018-06-18T00:24:16.913Z,8.10
2018-06-18T00:26:45.868Z,13.47
2018-06-18T00:29:14.866Z,13.83
2018-06-18T00:31:43.866Z,11.43
2018-06-18T00:34:12.973Z,13.33
2018-06-18T00:36:41.939Z,11.90
2018-06-18T00:39:10.920Z,14.07
2018-06-18T00:41:39.884Z,14.57
2018-06-18T00:44:08.916Z,10.47
2018-06-18T00:46:37.900Z,8.67
2018-06-18T00:49:06.952Z,19.97
2018-06-18T00:51:35.906Z,13.83
2018-06-18T00:54:04.956Z,9.73
2018-06-18T00:56:33.968Z,12.67
2018-06-18T00:59:03.041Z,12.67
2018-06-18T01:01:31.999Z,13.07
2018-06-18T01:04:01.117Z,13.43
2018-06-18T01:06:30.093Z,22.37
2018-06-18T01:08:59.099Z,15.37
2018-06-18T01:11:28.149Z,11.77
2018-06-18T01:13:57.257Z,12.70
2018-06-18T01:16:26.301Z,15.17
2018-06-18T01:18:55.323Z,13.70
2018-06-18T01:21:24.381Z,13.77
2018-06-18T01:24:19.117Z,19.20
2018-06-18T01:26:48.075Z,16.17
2018-06-18T01:29:17.093Z,11.67
2018-06-18T01:31:46.156Z,18.17
2018-06-18T01:34:25.257Z,19.13
2018-06-18T01:36:54.583Z,16.93
2018-06-18T01:39:24.096Z,22.37
2018-06-18T01:41:53.651Z,22.10
2018-06-18T01:44:22.664Z,16.90
2018-06-18T01:46:51.769Z,25.53
2018-06-18T01:49:21.016Z,20.87
2018-06-18T01:51:50.243Z,19.50
2018-06-18T01:54:19.560Z,17.67
2018-06-18T01:56:48.895Z,18.23
2018-06-18T01:59:18.181Z,20.37
2018-06-18T02:01:47.605Z,18.10
2018-06-18T02:04:16.860Z,13.83
2018-06-18T02:06:46.029Z,15.17
2018-06-18T02:09:15.207Z,16.27
2018-06-18T02:11:44.448Z,12.33
2018-06-18T02:14:13.651Z,14.07
2018-06-18T02:16:42.897Z,13.77
2018-06-18T02:19:11.852Z,12.87
2018-06-18T02:21:41.038Z,18.53
2018-06-18T02:24:10.049Z,11.73
2018-06-18T02:26:39.012Z,11.17
2018-06-18T02:29:12.997Z,12.90
2018-06-18T02:31:47.121Z,12.30
2018-06-18T02:34:21.287Z,16.37
2018-06-18T02:36:55.577Z,13.13
2018-06-18T02:39:24.859Z,13.03
2018-06-18T02:41:54.159Z,12.27
2018-06-18T02:44:23.125Z,12.60
2018-06-18T02:46:52.157Z,11.63
2018-06-18T02:49:21.176Z,11.40
2018-06-18T02:51:50.193Z,14.53
2018-06-18T02:54:19.204Z,16.33
2018-06-18T02:56:52.397Z,11.63
2018-06-18T02:59:21.432Z,12.93
2018-06-18T03:01:50.393Z,13.83
2018-06-18T03:04:19.444Z,12.73
2018-06-18T03:06:48.400Z,13.50
2018-06-18T03:09:17.378Z,12.20
2018-06-18T03:11:46.336Z,18.23
2018-06-18T03:14:15.375Z,13.40
2018-06-18T03:16:44.421Z,11.93
2018-06-18T03:19:18.525Z,9.53
2018-06-18T03:21:52.615Z,11.70
2018-06-18T03:24:26.868Z,11.50
2018-06-18T03:27:00.892Z,11.47
2018-06-18T03:29:32.892Z,13.23
2018-06-18T03:32:03.881Z,14.03
2018-06-18T03:34:32.851Z,15.27
2018-06-18T03:37:02.389Z,17.40
2018-06-18T03:39:31.784Z,15.20
2018-06-18T03:42:01.135Z,13.83
2018-06-18T03:44:33.792Z,13.73
2018-06-18T03:47:07.953Z,11.07
2018-06-18T03:49:36.939Z,12.57
2018-06-18T03:52:05.964Z,12.97
2018-06-18T03:54:35.164Z,14.47
2018-06-18T03:57:04.399Z,19.17
2018-06-18T03:59:33.644Z,11.83
2018-06-18T04:02:13.881Z,12.03
2018-06-18T04:04:50.431Z,14.60
2018-06-18T04:07:25.696Z,10.70
2018-06-18T04:09:59.839Z,13.77
2018-06-18T04:12:29.217Z,14.73
2018-06-18T04:14:58.686Z,15.77
2018-06-18T04:17:27.967Z,17.40
2018-06-18T04:19:57.307Z,19.47
2018-06-18T04:22:26.559Z,22.83
2018-06-18T04:24:55.792Z,20.20
2018-06-18T04:27:25.049Z,11.37
2018-06-18T04:29:54.332Z,14.67
2018-06-18T04:32:23.548Z,20.40
2018-06-18T04:35:03.312Z,19.13
2018-06-18T04:37:32.703Z,15.63
2018-06-18T04:40:01.960Z,17.73
2018-06-18T04:42:36.021Z,18.23
2018-06-18T04:45:10.200Z,14.57
2018-06-18T04:47:44.271Z,14.87
2018-06-18T04:50:18.575Z,17.43
2018-06-18T04:52:47.992Z,13.70
2018-06-18T04:55:17.386Z,15.20
2018-06-18T04:57:46.482Z,11.57
2018-06-18T05:00:26.921Z,8.97
2018-06-18T05:02:56.272Z,11.30
2018-06-18T05:05:25.513Z,14.83
2018-06-18T05:08:01.252Z,11.70
2018-06-18T05:10:30.696Z,16.87
2018-06-18T05:12:59.970Z,10.43
2018-06-18T05:15:36.512Z,10.33
2018-06-18T05:18:05.837Z,14.87
2018-06-18T05:20:35.200Z,7.53
2018-06-18T05:23:08.601Z,8.93
2018-06-18T05:25:37.846Z,9.60
2018-06-18T05:28:07.149Z,11.30
2018-06-18T05:30:36.491Z,7.80
2018-06-18T05:33:05.739Z,10.70
2018-06-18T05:35:35.040Z,8.03
2018-06-18T05:38:19.933Z,8.93
2018-06-18T05:40:49.152Z,6.60
2018-06-18T05:43:18.487Z,10.20
2018-06-18T05:45:47.792Z,7.73
2018-06-18T05:48:17.036Z,8.27
2018-06-18T05:50:46.428Z,9.80
2018-06-18T05:53:15.775Z,10.13
2018-06-18T05:55:45.049Z,8.63
2018-06-18T05:58:14.481Z,8.47
2018-06-18T06:00:43.521Z,8.23
2018-06-18T06:03:12.871Z,9.20
2018-06-18T06:05:42.249Z,8.40
2018-06-18T06:08:11.621Z,7.77
2018-06-18T06:10:40.938Z,9.60
2018-06-18T06:13:10.920Z,9.87
2018-06-18T06:15:41.265Z,19.33
2018-06-18T06:18:10.461Z,8.63
2018-06-18T06:20:46.549Z,6.47
2018-06-18T06:23:15.813Z,8.53
2018-06-18T06:25:44.905Z,12.17
2018-06-18T06:28:13.883Z,10.43
2018-06-18T06:30:42.916Z,7.63
2018-06-18T06:33:12.122Z,12.00
2018-06-18T06:35:42.865Z,8.33
2018-06-18T06:38:12.199Z,8.03
2018-06-18T06:40:41.726Z,13.50
2018-06-18T06:43:11.395Z,12.93
2018-06-18T06:45:41.556Z,9.63
2018-06-18T06:48:10.662Z,129.23
2018-06-18T06:50:39.692Z,27.97
2018-06-18T06:53:08.888Z,14.77
2018-06-18T06:55:38.087Z,11.50
2018-06-18T06:58:07.336Z,11.33
2018-06-18T07:00:36.369Z,7.27
2018-06-18T07:03:05.400Z,5.93
2018-06-18T07:05:34.360Z,7.93
2018-06-18T07:08:03.611Z,6.17
2018-06-18T07:10:32.859Z,6.40
2018-06-18T07:13:02.121Z,8.27
2018-06-18T07:15:31.487Z,6.77
2018-06-18T07:18:00.714Z,6.70
2018-06-18T07:20:29.936Z,7.33
2018-06-18T07:22:59.084Z,10.13
2018-06-18T07:25:28.296Z,8.17
2018-06-18T07:27:57.656Z,8.70
2018-06-18T07:30:27.034Z,9.43
2018-06-18T07:32:55.951Z,7.57
2018-06-18T07:35:24.924Z,6.53
2018-06-18T07:37:53.888Z,7.57
2018-06-18T07:40:22.928Z,15.30
2018-06-18T07:42:52.010Z,7.93
2018-06-18T07:45:21.053Z,9.67
2018-06-18T07:47:50.188Z,8.37
2018-06-18T07:50:19.192Z,7.53
2018-06-18T07:52:48.168Z,8.53
2018-06-18T07:55:17.200Z,8.63
2018-06-18T07:57:46.152Z,9.27
2018-06-18T08:00:15.144Z,13.60
2018-06-18T08:02:44.214Z,10.23
2018-06-18T08:05:13.237Z,8.17
2018-06-18T08:07:42.304Z,7.63
2018-06-18T08:10:11.584Z,8.80
2018-06-18T08:12:40.759Z,7.10
2018-06-18T08:15:10.048Z,17.83
2018-06-18T08:17:39.280Z,6.67
2018-06-18T08:20:08.747Z,7.10
2018-06-18T08:22:38.038Z,7.73
2018-06-18T08:25:07.393Z,7.47
2018-06-18T08:27:36.680Z,8.20
2018-06-18T08:30:06.232Z,8.37
2018-06-18T08:32:35.525Z,7.90
2018-06-18T08:35:04.999Z,6.97
2018-06-18T08:37:34.418Z,7.03
2018-06-18T08:40:03.769Z,6.30
2018-06-18T08:42:33.019Z,8.07
2018-06-18T08:45:02.390Z,8.40
2018-06-18T08:47:31.664Z,8.33
2018-06-18T08:50:05.913Z,8.90
2018-06-18T08:52:39.943Z,8.10
2018-06-18T08:55:14.112Z,11.10
2018-06-18T08:57:48.504Z,8.20
2018-06-18T09:00:22.672Z,9.93
2018-06-18T09:04:58.656Z,8.80
2018-06-18T09:07:31.075Z,10.33
2018-06-18T09:10:01.112Z,10.60
2018-06-18T09:12:30.310Z,10.67
2018-06-18T09:14:59.285Z,8.57
2018-06-18T09:17:28.673Z,11.97
2018-06-18T09:19:57.880Z,9.60
2018-06-18T09:22:27.216Z,9.93
2018-06-18T09:24:56.202Z,10.13
2018-06-18T09:27:25.580Z,9.63
2018-06-18T09:29:59.557Z,10.83
2018-06-18T09:32:29.085Z,9.63
2018-06-18T09:34:58.191Z,9.50
2018-06-18T09:37:27.395Z,11.40
2018-06-18T09:39:56.776Z,9.83
2018-06-18T09:42:25.948Z,10.53
2018-06-18T09:44:55.127Z,9.87
2018-06-18T09:47:24.473Z,8.53
2018-06-18T09:49:58.312Z,8.70
2018-06-18T09:52:32.407Z,9.83
2018-06-18T09:55:06.497Z,9.10
2018-06-18T09:57:40.816Z,7.47
2018-06-18T10:00:19.761Z,9.90
2018-06-18T10:02:49.024Z,8.60
2018-06-18T10:05:18.036Z,8.13
2018-06-18T10:07:47.319Z,9.23
2018-06-18T10:10:16.632Z,8.07
2018-06-18T10:12:45.963Z,6.87
2018-06-18T10:15:15.241Z,6.80
2018-06-18T10:17:44.445Z,6.70
2018-06-18T10:20:13.684Z,6.73
2018-06-18T10:22:42.992Z,6.97
2018-06-18T10:25:12.176Z,7.43
2018-06-18T10:27:41.511Z,10.00
2018-06-18T10:30:10.863Z,8.13
2018-06-18T10:32:45.152Z,8.27
2018-06-18T10:35:19.711Z,7.77
2018-06-18T10:37:53.936Z,7.07
2018-06-18T10:40:28.380Z,7.33
2018-06-18T10:43:02.608Z,8.10
2018-06-18T10:45:31.971Z,6.80
2018-06-18T10:48:01.148Z,8.00
2018-06-18T10:50:30.358Z,6.33
2018-06-18T10:52:59.660Z,6.60
2018-06-18T10:55:28.991Z,10.03
2018-06-18T10:57:58.358Z,9.43
2018-06-18T11:00:28.597Z,7.30
2018-06-18T11:02:57.785Z,6.60
2018-06-18T11:05:31.937Z,7.23
2018-06-18T11:08:01.044Z,6.53
2018-06-18T11:10:30.263Z,6.47
2018-06-18T11:12:59.464Z,7.93
2018-06-18T11:15:28.712Z,8.77
2018-06-18T11:20:09.910Z,8.17
2018-06-18T11:22:44.298Z,7.60
2018-06-18T11:25:18.456Z,5.00
2018-06-18T11:27:47.712Z,5.43
2018-06-18T11:30:16.911Z,4.90
2018-06-18T11:32:46.268Z,4.83
2018-06-18T11:35:16.423Z,3.57
2018-06-18T11:37:45.442Z,5.07
2018-06-18T11:40:14.589Z,3.87
2018-06-18T11:42:43.580Z,5.13
2018-06-18T11:45:12.804Z,8.67
2018-06-18T11:47:42.049Z,11.53
2018-06-18T11:50:11.276Z,5.53
2018-06-18T11:52:40.514Z,6.77
2018-06-18T11:55:09.802Z,5.47
2018-06-18T11:57:39.041Z,6.10
2018-06-18T12:00:13.617Z,6.60
2018-06-18T12:02:47.976Z,6.33
2018-06-18T12:05:22.176Z,7.37
2018-06-18T12:07:56.313Z,18.03
2018-06-18T12:10:25.676Z,47.47
2018-06-18T12:12:54.724Z,9.33
2018-06-18T12:15:23.940Z,8.67
2018-06-18T12:17:53.004Z,9.63
2018-06-18T12:20:22.120Z,9.80
2018-06-18T12:22:51.464Z,7.63
2018-06-18T12:25:20.710Z,9.30
2018-06-18T12:27:50.054Z,7.93
2018-06-18T12:30:19.392Z,9.10
2018-06-18T12:32:48.640Z,10.63
2018-06-18T12:35:17.954Z,11.90
2018-06-18T12:37:47.425Z,14.60
2018-06-18T12:40:16.700Z,13.27
2018-06-18T12:42:45.740Z,8.93
2018-06-18T12:45:21.867Z,13.70
2018-06-18T12:47:56.168Z,11.83
2018-06-18T12:50:30.317Z,10.30
2018-06-18T12:53:04.657Z,10.73
2018-06-18T12:55:38.871Z,10.97
2018-06-18T12:58:08.266Z,9.67
2018-06-18T13:00:37.584Z,10.93
2018-06-18T13:03:09.886Z,10.73
2018-06-18T13:05:39.142Z,12.93
2018-06-18T13:08:08.573Z,10.50
2018-06-18T13:10:37.936Z,11.27
2018-06-18T13:13:07.320Z,11.43
2018-06-18T13:15:36.713Z,14.50
2018-06-18T13:18:06.136Z,11.40
2018-06-18T13:20:35.511Z,13.37
2018-06-18T13:23:04.723Z,15.47
2018-06-18T13:25:34.040Z,11.53
2018-06-18T13:28:08.441Z,11.10
2018-06-18T13:30:37.681Z,15.03
2018-06-18T13:33:07.023Z,30.00
2018-06-18T13:35:36.213Z,11.93
2018-06-18T13:38:10.504Z,11.73
2018-06-18T13:40:44.648Z,12.90
2018-06-18T13:43:18.937Z,11.80
2018-06-18T13:45:53.090Z,15.30
2018-06-18T13:48:26.309Z,12.10
2018-06-18T13:50:55.644Z,7.40
2018-06-18T13:53:24.958Z,12.17
2018-06-18T13:55:54.239Z,11.63
2018-06-18T13:58:23.316Z,12.27
2018-06-18T14:00:52.575Z,10.27
2018-06-18T14:03:21.879Z,10.60
2018-06-18T14:05:51.220Z,11.93
2018-06-18T14:08:20.417Z,9.63
2018-06-18T14:10:49.684Z,14.07
2018-06-18T14:13:18.984Z,9.27
2018-06-18T14:15:48.372Z,9.37
2018-06-18T14:18:17.476Z,9.40
2018-06-18T14:20:46.695Z,8.03
2018-06-18T14:23:15.976Z,11.80
2018-06-18T14:25:45.228Z,10.67
2018-06-18T14:28:14.184Z,8.53
2018-06-18T14:30:48.497Z,10.27
2018-06-18T14:33:22.660Z,8.37
2018-06-18T14:35:56.939Z,55.77
2018-06-18T14:38:31.245Z,10.97
2018-06-18T14:41:00.459Z,9.27
2018-06-18T14:43:29.735Z,6.43
2018-06-18T14:45:59.108Z,7.80
2018-06-18T14:48:28.533Z,10.43
2018-06-18T14:50:57.509Z,15.00
2018-06-18T14:53:26.490Z,14.33
2018-06-18T14:56:06.321Z,9.10
2018-06-18T14:58:35.368Z,8.73
2018-06-18T15:01:04.332Z,6.70
2018-06-18T15:03:33.696Z,7.57
2018-06-18T15:06:02.738Z,8.87
2018-06-18T15:08:31.832Z,9.13
2018-06-18T15:11:00.826Z,6.90
2018-06-18T15:13:29.837Z,9.43
2018-06-18T15:16:03.937Z,10.20
2018-06-18T15:18:32.880Z,9.03
2018-06-18T15:21:03.529Z,12.73
2018-06-18T15:23:32.929Z,8.77
2018-06-18T15:26:01.929Z,7.90
2018-06-18T15:28:31.028Z,9.10
2018-06-18T15:31:00.144Z,9.10
2018-06-18T15:33:29.377Z,8.30
2018-06-18T15:35:58.327Z,6.83
2018-06-18T15:38:27.655Z,6.93
2018-06-18T15:40:56.985Z,6.90
2018-06-18T15:43:26.135Z,6.77
2018-06-18T15:45:55.477Z,8.20
2018-06-18T15:48:24.812Z,5.90
2018-06-18T15:50:54.180Z,8.13
2018-06-18T15:53:23.669Z,7.83
2018-06-18T15:55:52.859Z,6.73
2018-06-18T15:58:22.130Z,7.00
2018-06-18T16:00:51.317Z,9.23
2018-06-18T16:03:20.631Z,8.30
2018-06-18T16:05:50.050Z,7.57
2018-06-18T16:08:19.241Z,4.83
2018-06-18T16:10:48.416Z,6.27
2018-06-18T16:13:17.575Z,7.77
2018-06-18T16:15:46.793Z,9.37
2018-06-18T16:18:16.007Z,7.83
2018-06-18T16:20:45.273Z,7.73
2018-06-18T16:23:14.544Z,8.77
2018-06-18T16:25:43.759Z,12.40
2018-06-18T16:28:12.997Z,8.17
2018-06-18T16:30:42.027Z,6.07
2018-06-18T16:33:11.239Z,8.77
2018-06-18T16:35:40.452Z,12.27
2018-06-18T16:38:09.797Z,6.33
2018-06-18T16:40:38.873Z,6.57
2018-06-18T16:43:08.293Z,6.10
2018-06-18T16:45:37.636Z,7.03
2018-06-18T16:48:07.004Z,12.80
2018-06-18T16:50:36.287Z,4.40
2018-06-18T16:53:05.496Z,3.73
2018-06-18T16:55:34.949Z,4.73
2018-06-18T16:58:04.247Z,8.63
2018-06-18T17:00:33.624Z,7.20
2018-06-18T17:03:03.570Z,4.50
2018-06-18T17:05:33.634Z,11.97
2018-06-18T17:08:03.409Z,7.70
2018-06-18T17:10:33.329Z,14.80
2018-06-18T17:13:02.644Z,11.80
2018-06-18T17:15:31.928Z,12.87
2018-06-18T17:18:01.262Z,13.13
2018-06-18T17:20:30.630Z,11.87
2018-06-18T17:23:00.378Z,9.33
2018-06-18T17:25:29.695Z,7.60
2018-06-18T17:27:59.151Z,8.00
2018-06-18T17:30:28.710Z,9.70
2018-06-18T17:32:58.492Z,8.27
2018-06-18T17:35:27.945Z,6.23
2018-06-18T17:38:00.471Z,6.17
2018-06-18T17:40:29.923Z,9.63
2018-06-18T17:43:00.713Z,9.03
2018-06-18T17:45:30.275Z,10.97
2018-06-18T17:47:59.947Z,8.40
2018-06-18T17:50:29.293Z,64.70
2018-06-18T17:52:58.825Z,23.30
2018-06-18T17:55:28.343Z,9.00
2018-06-18T17:57:57.963Z,11.90
2018-06-18T18:00:27.528Z,13.27
2018-06-18T18:02:56.848Z,11.53
2018-06-18T18:05:26.212Z,8.23
2018-06-18T18:07:55.648Z,6.80
2018-06-18T18:10:25.135Z,7.00
2018-06-18T18:12:54.637Z,8.17
2018-06-18T18:15:24.155Z,7.83
2018-06-18T18:17:53.600Z,11.67
2018-06-18T18:20:23.120Z,7.47
2018-06-18T18:22:52.688Z,6.60
2018-06-18T18:25:22.336Z,8.27
2018-06-18T18:27:51.899Z,6.27
2018-06-18T18:30:21.390Z,6.50
2018-06-18T18:32:50.802Z,8.60
2018-06-18T18:35:20.296Z,6.43
2018-06-18T18:37:49.496Z,6.97
2018-06-18T18:40:18.756Z,8.83
2018-06-18T18:42:48.198Z,7.77
2018-06-18T18:45:17.549Z,8.50
2018-06-18T18:47:46.881Z,8.77
2018-06-18T18:50:16.181Z,8.70
2018-06-18T18:52:45.448Z,9.80
2018-06-18T18:55:35.503Z,9.43
2018-06-18T18:58:16.544Z,6.97
2018-06-18T19:00:46.668Z,7.87
2018-06-18T19:03:17.167Z,7.43
2018-06-18T19:05:46.898Z,11.20
2018-06-18T19:08:23.875Z,7.87
2018-06-18T19:10:53.057Z,8.60
2018-06-18T19:13:25.587Z,8.70
2018-06-18T19:15:55.857Z,8.60
2018-06-18T19:18:25.143Z,6.70
2018-06-18T19:21:01.706Z,8.33
2018-06-18T19:23:30.950Z,6.07
2018-06-18T19:25:59.946Z,6.33
2018-06-18T19:28:29.327Z,7.00
2018-06-18T19:31:05.316Z,9.23
2018-06-18T19:33:38.992Z,7.10
2018-06-18T19:36:08.837Z,7.33
2018-06-18T19:38:38.485Z,6.13
2018-06-18T19:41:07.641Z,7.97
2018-06-18T19:43:36.808Z,7.50
2018-06-18T19:46:06.303Z,8.40
2018-06-18T19:48:42.248Z,11.47
2018-06-18T19:51:11.593Z,8.97
2018-06-18T19:53:40.741Z,9.33
2018-06-18T19:56:09.837Z,8.47
2018-06-18T19:58:38.778Z,10.40
2018-06-18T20:01:09.198Z,9.40
2018-06-18T20:03:38.329Z,8.27
2018-06-18T20:06:07.589Z,9.20
2018-06-18T20:08:36.556Z,9.43
2018-06-18T20:11:05.551Z,10.37
2018-06-18T20:13:34.748Z,9.67
2018-06-18T20:16:04.113Z,10.30
2018-06-18T20:18:33.456Z,10.00
2018-06-18T20:21:02.708Z,9.83
2018-06-18T20:23:31.844Z,15.13
2018-06-18T20:26:07.290Z,8.17
2018-06-18T20:28:36.505Z,9.40
2018-06-18T20:31:05.719Z,10.00
2018-06-18T20:33:36.960Z,8.70
2018-06-18T20:36:15.061Z,11.90
2018-06-18T20:38:44.408Z,10.13
2018-06-18T20:41:13.652Z,9.37
2018-06-18T20:44:07.677Z,9.83
2018-06-18T20:46:37.027Z,7.23
2018-06-18T20:49:07.397Z,8.73
2018-06-18T20:51:36.636Z,9.77
2018-06-18T20:54:05.981Z,9.53
2018-06-18T20:56:35.280Z,9.53
2018-06-18T20:59:05.087Z,11.23
2018-06-18T21:01:34.287Z,10.00
2018-06-18T21:04:03.577Z,9.30
2018-06-18T21:06:32.781Z,7.97
2018-06-18T21:09:02.124Z,13.13
2018-06-18T21:11:31.340Z,10.23
2018-06-18T21:14:00.567Z,8.40
2018-06-18T21:16:29.864Z,8.13
2018-06-18T21:18:58.938Z,8.80
2018-06-18T21:21:28.024Z,7.77
2018-06-18T21:23:59.171Z,9.03
2018-06-18T21:26:28.440Z,7.80
2018-06-18T21:28:57.691Z,9.07
2018-06-18T21:31:26.863Z,9.37
2018-06-18T21:33:56.060Z,7.60
2018-06-18T21:36:25.044Z,8.60
2018-06-18T21:38:54.415Z,8.57
2018-06-18T21:41:23.619Z,8.87
2018-06-18T21:43:53.839Z,11.57
2018-06-18T21:46:23.017Z,9.83
2018-06-18T21:48:52.240Z,9.00
2018-06-18T21:51:21.537Z,8.27
2018-06-18T21:53:50.624Z,8.53
2018-06-18T21:56:19.938Z,8.40
2018-06-18T21:58:49.189Z,8.23
2018-06-18T22:01:28.222Z,10.87
2018-06-18T22:03:57.404Z,10.70
2018-06-18T22:06:26.536Z,11.77
2018-06-18T22:08:55.772Z,8.90
2018-06-18T22:11:25.124Z,9.13
2018-06-18T22:13:54.425Z,10.43
2018-06-18T22:16:23.603Z,12.13
2018-06-18T22:18:52.816Z,10.77
2018-06-18T22:21:22.049Z,10.60
2018-06-18T22:23:51.409Z,10.43
2018-06-18T22:26:20.848Z,8.27
2018-06-18T22:28:49.818Z,9.47
2018-06-18T22:31:19.196Z,8.33
2018-06-18T22:33:48.553Z,11.00
2018-06-18T22:36:17.953Z,9.30
2018-06-18T22:38:47.304Z,8.13
2018-06-18T22:41:16.641Z,7.90
2018-06-18T22:43:45.776Z,7.60
2018-06-18T22:46:14.748Z,8.23
2018-06-18T22:48:44.067Z,9.20
2018-06-18T22:51:13.404Z,10.13
2018-06-18T22:53:42.720Z,9.13
2018-06-18T22:56:12.084Z,8.63
2018-06-18T22:58:41.381Z,7.43
2018-06-18T23:01:10.728Z,8.67
2018-06-18T23:03:39.868Z,6.90
2018-06-18T23:06:09.271Z,10.23
2018-06-18T23:08:38.585Z,52.13
2018-06-18T23:11:07.932Z,810.93
2018-06-18T23:13:37.851Z,433.30
2018-06-18T23:16:08.296Z,498.63
2018-06-18T23:18:37.483Z,412.83
2018-06-18T23:21:06.712Z,331.17
2018-06-18T23:23:36.097Z,526.90
2018-06-18T23:26:05.333Z,17.83
2018-06-18T23:28:45.591Z,12.87
2018-06-18T23:31:14.956Z,17.17
2018-06-18T23:33:44.364Z,14.67
2018-06-18T23:36:13.714Z,15.50
2018-06-18T23:38:43.012Z,52.53
2018-06-18T23:41:12.352Z,19.90
2018-06-18T23:43:41.559Z,169.47
2018-06-18T23:46:10.973Z,112.20
2018-06-18T23:48:40.204Z,347.00
2018-06-18T23:51:09.472Z,109.47
2018-06-18T23:53:38.668Z,67.77
2018-06-18T23:56:07.968Z,271.07
2018-06-18T23:58:37.248Z,226.03
